createdAt,value
2019-05-18T00:00:33.353Z,9.15
2019-05-18T00:01:38.241Z,9.20
2019-05-18T00:02:42.487Z,9.20
2019-05-18T00:03:47.211Z,8.98
2019-05-18T00:04:51.438Z,9.68
2019-05-18T00:05:56.514Z,8.85
2019-05-18T00:07:00.780Z,9.35
2019-05-18T00:08:05.498Z,9.43
2019-05-18T00:09:10.637Z,8.83
2019-05-18T00:10:15.396Z,7.92
2019-05-18T00:11:19.704Z,9.60
2019-05-18T00:12:26.053Z,8.83
2019-05-18T00:13:30.225Z,9.00
2019-05-18T00:14:35.787Z,8.10
2019-05-18T00:15:40.341Z,9.10
2019-05-18T00:16:45.068Z,8.90
2019-05-18T00:17:49.243Z,9.60
2019-05-18T00:18:54.025Z,9.33
2019-05-18T00:19:58.219Z,9.05
2019-05-18T00:21:03.083Z,8.95
2019-05-18T00:22:07.249Z,9.10
2019-05-18T00:23:11.980Z,9.15
2019-05-18T00:24:16.357Z,10.23
2019-05-18T00:25:21.232Z,10.37
2019-05-18T00:26:25.741Z,10.35
2019-05-18T00:27:32.163Z,9.73
2019-05-18T00:28:36.341Z,9.55
2019-05-18T00:29:41.136Z,9.78
2019-05-18T00:30:45.311Z,9.65
2019-05-18T00:31:51.252Z,9.53
2019-05-18T00:32:55.608Z,9.90
2019-05-18T00:34:00.416Z,10.08
2019-05-18T00:35:06.971Z,9.53
2019-05-18T00:36:11.781Z,9.83
2019-05-18T00:37:16.219Z,10.00
2019-05-18T00:38:21.092Z,9.70
2019-05-18T00:39:25.473Z,10.33
2019-05-18T00:40:30.215Z,9.38
2019-05-18T00:41:34.458Z,10.30
2019-05-18T00:42:39.373Z,10.28
2019-05-18T00:43:43.551Z,11.28
2019-05-18T00:44:49.252Z,10.18
2019-05-18T00:45:53.449Z,9.95
2019-05-18T00:46:58.190Z,10.75
2019-05-18T00:48:02.484Z,11.35
2019-05-18T00:49:07.453Z,10.08
2019-05-18T00:50:13.060Z,10.80
2019-05-18T00:51:17.911Z,10.83
2019-05-18T00:52:22.101Z,11.23
2019-05-18T00:53:27.260Z,10.90
2019-05-18T00:54:31.506Z,10.48
2019-05-18T00:55:36.241Z,11.05
2019-05-18T00:56:40.534Z,11.45
2019-05-18T00:57:45.273Z,11.15
2019-05-18T00:58:49.666Z,11.75
2019-05-18T00:59:54.398Z,10.68
2019-05-18T01:00:58.576Z,11.45
2019-05-18T01:02:03.479Z,11.95
2019-05-18T01:03:08.729Z,11.78
2019-05-18T01:04:13.515Z,12.47
2019-05-18T01:05:17.733Z,11.10
2019-05-18T01:06:22.462Z,11.73
2019-05-18T01:07:26.779Z,10.55
2019-05-18T01:08:31.623Z,11.10
2019-05-18T01:09:35.981Z,11.73
2019-05-18T01:10:40.716Z,11.12
2019-05-18T01:11:44.892Z,11.30
2019-05-18T01:12:49.691Z,11.12
2019-05-18T01:13:53.871Z,11.12
2019-05-18T01:14:58.854Z,11.50
2019-05-18T01:16:03.302Z,10.90
2019-05-18T01:17:08.034Z,10.68
2019-05-18T01:18:12.292Z,11.57
2019-05-18T01:19:17.427Z,11.87
2019-05-18T01:20:21.587Z,11.53
2019-05-18T01:21:26.387Z,11.40
2019-05-18T01:22:30.590Z,11.43
2019-05-18T01:23:35.328Z,11.35
2019-05-18T01:24:39.583Z,10.93
2019-05-18T01:25:44.417Z,11.05
2019-05-18T01:26:48.721Z,10.70
2019-05-18T01:27:53.453Z,10.85
2019-05-18T01:29:02.471Z,11.03
2019-05-18T01:30:08.463Z,10.00
2019-05-18T01:31:12.726Z,10.93
2019-05-18T01:32:17.524Z,11.20
2019-05-18T01:33:21.696Z,9.57
2019-05-18T01:34:26.425Z,10.65
2019-05-18T01:35:30.658Z,10.25
2019-05-18T01:36:35.411Z,10.55
2019-05-18T01:37:39.595Z,10.65
2019-05-18T01:38:44.328Z,11.25
2019-05-18T01:39:48.698Z,10.32
2019-05-18T01:40:53.469Z,11.08
2019-05-18T01:41:57.729Z,10.95
2019-05-18T01:43:02.575Z,10.18
2019-05-18T01:44:06.826Z,10.58
2019-05-18T01:45:16.997Z,10.08
2019-05-18T01:46:18.240Z,10.80
2019-05-18T01:47:22.968Z,11.40
2019-05-18T01:48:27.217Z,11.63
2019-05-18T01:49:32.250Z,10.98
2019-05-18T01:50:36.498Z,11.10
2019-05-18T01:51:41.305Z,10.53
2019-05-18T01:52:45.515Z,11.55
2019-05-18T01:53:50.246Z,11.12
2019-05-18T01:54:54.427Z,11.63
2019-05-18T01:55:59.158Z,10.90
2019-05-18T01:57:03.335Z,11.35
2019-05-18T01:58:08.280Z,11.33
2019-05-18T01:59:14.273Z,11.47
2019-05-18T02:00:19.177Z,10.60
2019-05-18T02:01:23.353Z,10.93
2019-05-18T02:02:28.085Z,11.45
2019-05-18T02:03:32.354Z,11.10
2019-05-18T02:04:37.453Z,10.72
2019-05-18T02:05:41.638Z,11.10
2019-05-18T02:06:46.451Z,11.40
2019-05-18T02:07:50.816Z,11.68
2019-05-18T02:08:55.762Z,10.90
2019-05-18T02:09:59.961Z,10.63
2019-05-18T02:11:07.746Z,10.75
2019-05-18T02:12:12.058Z,11.00
2019-05-18T02:13:17.151Z,10.07
2019-05-18T02:14:21.395Z,11.33
2019-05-18T02:15:26.289Z,10.70
2019-05-18T02:16:30.488Z,11.00
2019-05-18T02:17:35.226Z,10.08
2019-05-18T02:18:41.861Z,10.48
2019-05-18T02:19:46.881Z,10.90
2019-05-18T02:20:51.129Z,11.15
2019-05-18T02:21:56.226Z,10.93
2019-05-18T02:23:00.402Z,10.57
2019-05-18T02:24:05.306Z,10.98
2019-05-18T02:25:09.521Z,9.70
2019-05-18T02:26:14.373Z,9.85
2019-05-18T02:27:18.628Z,9.40
2019-05-18T02:28:23.364Z,9.73
2019-05-18T02:29:27.560Z,9.60
2019-05-18T02:30:32.299Z,9.75
2019-05-18T02:31:36.684Z,10.32
2019-05-18T02:32:41.483Z,9.73
2019-05-18T02:33:45.687Z,10.28
2019-05-18T02:34:50.549Z,11.00
2019-05-18T02:35:54.862Z,9.20
2019-05-18T02:36:59.605Z,10.25
2019-05-18T02:38:15.102Z,9.68
2019-05-18T02:39:21.067Z,10.20
2019-05-18T02:40:26.873Z,9.58
2019-05-18T02:41:31.726Z,10.25
2019-05-18T02:42:36.245Z,10.32
2019-05-18T02:43:41.116Z,9.88
2019-05-18T02:44:45.350Z,9.93
2019-05-18T02:45:50.092Z,9.25
2019-05-18T02:46:54.282Z,10.10
2019-05-18T02:47:59.072Z,10.10
2019-05-18T02:49:03.305Z,10.55
2019-05-18T02:50:08.472Z,10.70
2019-05-18T02:51:12.639Z,11.07
2019-05-18T02:52:17.568Z,11.30
2019-05-18T02:53:21.753Z,10.40
2019-05-18T02:54:27.063Z,10.60
2019-05-18T02:55:31.245Z,10.03
2019-05-18T02:56:36.519Z,11.05
2019-05-18T02:57:40.867Z,11.12
2019-05-18T02:58:46.827Z,11.35
2019-05-18T02:59:51.083Z,11.20
2019-05-18T03:00:55.858Z,10.88
2019-05-18T03:02:00.112Z,11.10
2019-05-18T03:03:05.503Z,10.32
2019-05-18T03:04:09.680Z,11.13
2019-05-18T03:05:14.525Z,11.67
2019-05-18T03:06:18.851Z,11.70
2019-05-18T03:07:23.628Z,11.50
2019-05-18T03:08:27.803Z,11.60
2019-05-18T03:09:32.640Z,10.93
2019-05-18T03:10:36.817Z,11.33
2019-05-18T03:11:41.577Z,11.30
2019-05-18T03:12:45.769Z,11.53
2019-05-18T03:13:50.569Z,11.70
2019-05-18T03:14:54.842Z,10.88
2019-05-18T03:16:00.523Z,10.40
2019-05-18T03:17:05.201Z,11.12
2019-05-18T03:18:10.104Z,11.10
2019-05-18T03:19:14.292Z,10.75
2019-05-18T03:20:19.052Z,11.00
2019-05-18T03:21:23.227Z,11.00
2019-05-18T03:22:27.981Z,10.75
2019-05-18T03:23:32.225Z,11.45
2019-05-18T03:24:37.315Z,10.98
2019-05-18T03:25:41.651Z,11.45
2019-05-18T03:26:46.417Z,11.35
2019-05-18T03:27:50.589Z,11.18
2019-05-18T03:28:55.413Z,11.45
2019-05-18T03:30:00.570Z,11.70
2019-05-18T03:31:08.280Z,11.33
2019-05-18T03:32:12.809Z,11.83
2019-05-18T03:33:17.667Z,11.83
2019-05-18T03:34:21.862Z,12.83
2019-05-18T03:35:26.630Z,11.45
2019-05-18T03:36:30.847Z,11.53
2019-05-18T03:37:35.819Z,12.18
2019-05-18T03:38:41.275Z,11.97
2019-05-18T03:39:47.242Z,13.13
2019-05-18T03:40:51.486Z,12.35
2019-05-18T03:41:56.374Z,11.63
2019-05-18T03:43:00.603Z,12.78
2019-05-18T03:44:05.698Z,11.52
2019-05-18T03:45:09.982Z,13.37
2019-05-18T03:46:14.715Z,12.90
2019-05-18T03:47:19.077Z,12.93
2019-05-18T03:48:23.835Z,12.30
2019-05-18T03:49:28.262Z,12.25
2019-05-18T03:50:33.154Z,13.55
2019-05-18T03:51:37.375Z,14.28
2019-05-18T03:52:42.277Z,13.58
2019-05-18T03:53:46.525Z,13.48
2019-05-18T03:54:51.406Z,14.90
2019-05-18T03:55:55.710Z,13.30
2019-05-18T03:57:00.424Z,13.43
2019-05-18T03:58:04.772Z,14.10
2019-05-18T03:59:09.528Z,14.33
2019-05-18T04:00:14.074Z,14.70
2019-05-18T04:01:18.876Z,14.28
2019-05-18T04:02:23.052Z,14.80
2019-05-18T04:03:27.856Z,15.20
2019-05-18T04:04:32.035Z,14.95
2019-05-18T04:05:36.794Z,15.58
2019-05-18T04:06:41.361Z,16.53
2019-05-18T04:07:46.116Z,15.10
2019-05-18T04:08:50.292Z,16.42
2019-05-18T04:09:55.129Z,15.93
2019-05-18T04:10:59.312Z,16.37
2019-05-18T04:12:05.454Z,16.32
2019-05-18T04:13:09.723Z,16.63
2019-05-18T04:14:14.480Z,15.67
2019-05-18T04:15:18.829Z,16.37
2019-05-18T04:16:23.563Z,15.90
2019-05-18T04:17:27.786Z,16.40
2019-05-18T04:18:32.521Z,16.32
2019-05-18T04:19:46.405Z,16.07
2019-05-18T04:20:43.256Z,16.95
2019-05-18T04:21:47.583Z,16.15
2019-05-18T04:22:52.368Z,15.28
2019-05-18T04:23:56.606Z,15.60
2019-05-18T04:25:01.340Z,15.80
2019-05-18T04:26:05.510Z,16.82
2019-05-18T04:27:10.307Z,17.63
2019-05-18T04:28:14.683Z,16.50
2019-05-18T04:29:19.486Z,16.07
2019-05-18T04:30:23.675Z,16.25
2019-05-18T04:31:32.109Z,16.70
2019-05-18T04:32:34.424Z,16.30
2019-05-18T04:33:39.193Z,15.78
2019-05-18T04:34:43.353Z,16.93
2019-05-18T04:35:48.243Z,15.85
2019-05-18T04:36:52.611Z,17.10
2019-05-18T04:37:57.485Z,15.78
2019-05-18T04:39:01.738Z,15.93
2019-05-18T04:40:08.270Z,15.43
2019-05-18T04:41:12.493Z,15.53
2019-05-18T04:42:17.290Z,15.73
2019-05-18T04:43:21.468Z,15.13
2019-05-18T04:44:26.197Z,15.40
2019-05-18T04:45:30.406Z,15.68
2019-05-18T04:46:34.927Z,16.17
2019-05-18T04:47:39.227Z,15.25
2019-05-18T04:48:43.993Z,16.52
2019-05-18T04:50:03.897Z,15.80
2019-05-18T04:50:54.712Z,15.95
2019-05-18T04:51:58.888Z,15.63
2019-05-18T04:53:03.617Z,15.65
2019-05-18T04:54:07.834Z,16.07
2019-05-18T04:55:12.647Z,15.78
2019-05-18T04:56:17.150Z,17.03
2019-05-18T04:57:22.133Z,16.07
2019-05-18T04:58:26.311Z,16.60
2019-05-18T04:59:31.059Z,16.30
2019-05-18T05:00:35.250Z,16.55
2019-05-18T05:01:40.055Z,15.27
2019-05-18T05:02:44.240Z,15.10
2019-05-18T05:03:49.059Z,14.38
2019-05-18T05:04:56.620Z,14.05
2019-05-18T05:05:59.657Z,15.35
2019-05-18T05:07:04.477Z,14.98
2019-05-18T05:08:09.378Z,15.30
2019-05-18T05:09:13.549Z,15.53
2019-05-18T05:10:18.547Z,14.87
2019-05-18T05:11:22.766Z,14.23
2019-05-18T05:12:27.548Z,14.57
2019-05-18T05:13:31.766Z,15.20
2019-05-18T05:14:36.495Z,14.90
2019-05-18T05:15:40.677Z,15.32
2019-05-18T05:16:45.428Z,15.00
2019-05-18T05:17:49.699Z,14.47
2019-05-18T05:18:54.431Z,14.15
2019-05-18T05:19:58.623Z,15.05
2019-05-18T05:21:05.456Z,13.93
2019-05-18T05:22:09.736Z,14.07
2019-05-18T05:23:14.490Z,13.33
2019-05-18T05:24:18.673Z,13.63
2019-05-18T05:25:23.409Z,14.07
2019-05-18T05:26:27.648Z,13.35
2019-05-18T05:27:32.486Z,13.13
2019-05-18T05:28:36.695Z,12.15
2019-05-18T05:29:41.421Z,12.03
2019-05-18T05:31:51.123Z,13.20
2019-05-18T05:32:56.180Z,12.90
2019-05-18T05:34:00.395Z,13.25
2019-05-18T05:35:06.353Z,11.25
2019-05-18T05:36:10.602Z,12.63
2019-05-18T05:37:15.328Z,13.20
2019-05-18T05:38:19.503Z,12.27
2019-05-18T05:39:24.274Z,13.43
2019-05-18T05:40:29.193Z,12.45
2019-05-18T05:41:34.099Z,12.93
2019-05-18T05:42:39.305Z,12.63
2019-05-18T05:43:44.249Z,12.18
2019-05-18T05:44:48.604Z,12.53
2019-05-18T05:45:53.327Z,12.58
2019-05-18T05:46:57.519Z,12.50
2019-05-18T05:48:02.248Z,12.40
2019-05-18T05:49:06.423Z,13.00
2019-05-18T05:50:11.246Z,12.03
2019-05-18T05:51:15.486Z,12.53
2019-05-18T05:52:20.214Z,12.40
2019-05-18T05:53:24.514Z,13.15
2019-05-18T05:54:29.407Z,12.85
2019-05-18T05:55:33.647Z,12.82
2019-05-18T05:56:38.708Z,11.88
2019-05-18T05:57:43.101Z,13.08
2019-05-18T05:58:47.840Z,11.97
2019-05-18T05:59:52.017Z,12.65
2019-05-18T06:00:56.790Z,13.40
2019-05-18T06:02:01.245Z,13.05
2019-05-18T06:03:05.953Z,13.13
2019-05-18T06:04:10.198Z,12.30
2019-05-18T06:05:14.982Z,13.50
2019-05-18T06:06:19.225Z,14.30
2019-05-18T06:07:23.981Z,13.03
2019-05-18T06:08:28.461Z,13.18
2019-05-18T06:09:33.189Z,13.80
2019-05-18T06:10:37.366Z,14.35
2019-05-18T06:11:42.165Z,13.60
2019-05-18T06:12:46.389Z,13.65
2019-05-18T06:13:51.261Z,12.90
2019-05-18T06:14:55.388Z,12.50
2019-05-18T06:16:01.115Z,13.18
2019-05-18T06:17:08.326Z,13.05
2019-05-18T06:18:11.716Z,12.73
2019-05-18T06:19:15.990Z,13.57
2019-05-18T06:20:21.431Z,13.00
2019-05-18T06:21:25.593Z,13.30
2019-05-18T06:22:30.431Z,15.00
2019-05-18T06:23:34.622Z,14.20
2019-05-18T06:24:39.460Z,13.15
2019-05-18T06:25:43.903Z,14.23
2019-05-18T06:26:48.746Z,12.45
2019-05-18T06:27:52.886Z,11.53
2019-05-18T06:28:57.834Z,12.93
2019-05-18T06:30:02.168Z,12.55
2019-05-18T06:31:06.883Z,12.23
2019-05-18T06:32:11.062Z,11.80
2019-05-18T06:33:15.885Z,12.83
2019-05-18T06:34:20.169Z,15.17
2019-05-18T06:35:24.906Z,19.32
2019-05-18T06:36:29.092Z,21.90
2019-05-18T06:37:33.821Z,17.17
2019-05-18T06:38:38.021Z,12.82
2019-05-18T06:39:42.941Z,12.60
2019-05-18T06:40:47.158Z,11.60
2019-05-18T06:41:51.985Z,12.23
2019-05-18T06:42:56.537Z,11.65
2019-05-18T06:44:02.310Z,11.60
2019-05-18T06:45:07.220Z,10.75
2019-05-18T06:46:11.986Z,11.43
2019-05-18T06:47:16.175Z,11.60
2019-05-18T06:48:21.020Z,10.77
2019-05-18T06:49:25.265Z,11.05
2019-05-18T06:50:31.148Z,11.12
2019-05-18T06:51:35.354Z,11.63
2019-05-18T06:52:40.085Z,12.40
2019-05-18T06:53:44.298Z,11.28
2019-05-18T06:54:49.102Z,11.43
2019-05-18T06:55:53.282Z,11.55
2019-05-18T06:56:58.205Z,11.35
2019-05-18T06:58:02.483Z,12.93
2019-05-18T06:59:07.483Z,11.90
2019-05-18T07:00:11.792Z,11.50
2019-05-18T07:01:16.528Z,12.43
2019-05-18T07:02:21.273Z,11.07
2019-05-18T07:03:26.305Z,12.25
2019-05-18T07:04:30.445Z,11.68
2019-05-18T07:05:36.162Z,11.65
2019-05-18T07:06:40.533Z,12.03
2019-05-18T07:07:45.267Z,11.30
2019-05-18T07:08:49.454Z,12.40
2019-05-18T07:09:54.186Z,13.48
2019-05-18T07:10:58.391Z,11.50
2019-05-18T07:12:03.279Z,11.48
2019-05-18T07:13:07.453Z,11.35
2019-05-18T07:14:24.837Z,11.60
2019-05-18T07:15:18.224Z,11.43
2019-05-18T07:16:22.958Z,12.13
2019-05-18T07:17:27.270Z,12.15
2019-05-18T07:18:32.008Z,11.70
2019-05-18T07:19:36.182Z,11.22
2019-05-18T07:20:41.629Z,11.80
2019-05-18T07:21:45.802Z,12.45
2019-05-18T07:22:51.649Z,11.50
2019-05-18T07:23:55.830Z,11.30
2019-05-18T07:25:00.566Z,12.45
2019-05-18T07:26:04.810Z,12.40
2019-05-18T07:27:09.556Z,11.78
2019-05-18T07:28:13.749Z,11.00
2019-05-18T07:29:18.595Z,12.17
2019-05-18T07:30:22.776Z,11.87
2019-05-18T07:31:27.509Z,11.88
2019-05-18T07:32:31.729Z,11.43
2019-05-18T07:33:37.554Z,11.93
2019-05-18T07:34:41.730Z,12.28
2019-05-18T07:35:46.573Z,11.80
2019-05-18T07:36:50.850Z,12.40
2019-05-18T07:37:55.585Z,11.35
2019-05-18T07:39:00.761Z,10.82
2019-05-18T07:40:07.837Z,12.58
2019-05-18T07:41:12.037Z,12.53
2019-05-18T07:42:17.847Z,13.13
2019-05-18T07:43:22.018Z,12.03
2019-05-18T07:44:27.856Z,11.63
2019-05-18T07:45:32.019Z,11.22
2019-05-18T07:46:36.791Z,12.30
2019-05-18T07:47:40.992Z,12.53
2019-05-18T07:48:45.813Z,12.07
2019-05-18T07:49:49.982Z,12.35
2019-05-18T07:50:54.785Z,12.82
2019-05-18T07:51:59.044Z,12.55
2019-05-18T07:53:03.845Z,11.85
2019-05-18T07:54:08.083Z,12.47
2019-05-18T07:55:12.809Z,12.60
2019-05-18T07:56:17.097Z,12.27
2019-05-18T07:57:21.941Z,12.03
2019-05-18T07:58:26.115Z,12.58
2019-05-18T07:59:30.942Z,12.53
2019-05-18T08:00:35.173Z,12.45
2019-05-18T08:01:39.849Z,11.85
2019-05-18T08:02:45.179Z,11.33
2019-05-18T08:03:50.121Z,12.70
2019-05-18T08:04:54.334Z,12.73
2019-05-18T08:05:59.069Z,13.50
2019-05-18T08:07:03.353Z,12.75
2019-05-18T08:08:08.208Z,12.70
2019-05-18T08:09:12.398Z,12.83
2019-05-18T08:10:20.563Z,13.37
2019-05-18T08:11:24.744Z,13.03
2019-05-18T08:12:29.506Z,13.22
2019-05-18T08:13:33.782Z,14.47
2019-05-18T08:14:38.636Z,12.63
2019-05-18T08:15:42.812Z,14.20
2019-05-18T08:16:47.737Z,12.65
2019-05-18T08:17:51.920Z,13.35
2019-05-18T08:18:58.208Z,12.67
2019-05-18T08:20:02.648Z,13.68
2019-05-18T08:21:08.238Z,12.90
2019-05-18T08:22:12.432Z,13.25
2019-05-18T08:23:18.302Z,12.47
2019-05-18T08:24:22.523Z,12.80
2019-05-18T08:25:27.253Z,12.98
2019-05-18T08:26:31.513Z,12.78
2019-05-18T08:27:36.226Z,13.62
2019-05-18T08:28:40.493Z,13.43
2019-05-18T08:29:45.290Z,13.70
2019-05-18T08:30:49.465Z,13.75
2019-05-18T08:31:54.341Z,13.15
2019-05-18T08:32:58.528Z,12.82
2019-05-18T08:34:03.354Z,14.00
2019-05-18T08:35:08.865Z,13.30
2019-05-18T08:36:13.601Z,13.07
2019-05-18T08:37:17.827Z,13.23
2019-05-18T08:38:22.557Z,13.63
2019-05-18T08:39:26.767Z,13.28
2019-05-18T08:40:32.890Z,12.25
2019-05-18T08:41:37.093Z,13.08
2019-05-18T08:42:41.972Z,13.22
2019-05-18T08:43:46.156Z,13.35
2019-05-18T08:44:51.151Z,12.30
2019-05-18T08:45:55.394Z,12.60
2019-05-18T08:47:00.187Z,13.58
2019-05-18T08:48:05.332Z,13.05
2019-05-18T08:49:10.135Z,13.17
2019-05-18T08:50:14.467Z,13.07
2019-05-18T08:51:19.191Z,13.23
2019-05-18T08:52:23.418Z,13.20
2019-05-18T08:53:28.421Z,12.93
2019-05-18T08:54:32.604Z,13.48
2019-05-18T08:55:37.546Z,12.98
2019-05-18T08:56:41.724Z,11.80
2019-05-18T08:57:46.460Z,12.07
2019-05-18T08:58:50.637Z,12.70
2019-05-18T08:59:55.379Z,12.65
2019-05-18T09:00:59.599Z,12.68
2019-05-18T09:02:04.942Z,12.90
2019-05-18T09:03:09.195Z,11.68
2019-05-18T09:04:13.925Z,11.97
2019-05-18T09:05:18.103Z,11.97
2019-05-18T09:06:22.873Z,12.50
2019-05-18T09:07:27.057Z,12.78
2019-05-18T09:08:31.855Z,12.73
2019-05-18T09:09:36.057Z,13.13
2019-05-18T09:10:40.861Z,12.85
2019-05-18T09:11:45.254Z,12.05
2019-05-18T09:12:50.057Z,12.63
2019-05-18T09:13:54.242Z,12.47
2019-05-18T09:14:59.056Z,11.85
2019-05-18T09:16:04.089Z,12.58
2019-05-18T09:17:08.863Z,12.15
2019-05-18T09:18:13.058Z,12.93
2019-05-18T09:19:17.798Z,12.40
2019-05-18T09:20:21.985Z,12.17
2019-05-18T09:21:26.719Z,11.95
2019-05-18T09:22:30.904Z,13.25
2019-05-18T09:23:35.742Z,13.28
2019-05-18T09:24:39.929Z,12.90
2019-05-18T09:25:45.228Z,12.55
2019-05-18T09:26:49.473Z,10.95
2019-05-18T09:27:54.227Z,10.85
2019-05-18T09:28:58.511Z,11.33
2019-05-18T09:30:03.347Z,12.15
2019-05-18T09:31:07.509Z,11.10
2019-05-18T09:32:12.240Z,11.78
2019-05-18T09:33:16.471Z,12.00
2019-05-18T09:34:21.245Z,12.83
2019-05-18T09:35:25.426Z,11.12
2019-05-18T09:36:30.192Z,12.05
2019-05-18T09:37:34.447Z,11.70
2019-05-18T09:38:39.208Z,11.97
2019-05-18T09:39:43.421Z,13.15
2019-05-18T09:40:48.153Z,11.38
2019-05-18T09:41:52.344Z,10.58
2019-05-18T09:42:57.811Z,10.78
2019-05-18T09:44:02.456Z,12.23
2019-05-18T09:45:07.875Z,11.55
2019-05-18T09:46:12.027Z,12.07
2019-05-18T09:47:16.810Z,11.23
2019-05-18T09:48:20.982Z,10.97
2019-05-18T09:49:25.716Z,11.70
2019-05-18T09:50:29.920Z,11.38
2019-05-18T09:51:34.649Z,11.45
2019-05-18T09:52:46.623Z,9.70
2019-05-18T09:53:51.655Z,11.55
2019-05-18T09:54:51.521Z,11.47
2019-05-18T09:55:56.349Z,11.10
2019-05-18T09:57:00.525Z,9.43
2019-05-18T09:58:05.289Z,8.80
2019-05-18T09:59:09.445Z,9.17
2019-05-18T10:00:15.433Z,8.27
2019-05-18T10:01:19.673Z,8.83
2019-05-18T10:02:24.431Z,8.73
2019-05-18T10:03:28.705Z,9.08
2019-05-18T10:04:33.514Z,9.38
2019-05-18T10:05:37.671Z,8.65
2019-05-18T10:06:42.398Z,8.35
2019-05-18T10:07:46.724Z,9.08
2019-05-18T10:08:51.500Z,9.25
2019-05-18T10:09:55.665Z,8.73
2019-05-18T10:11:00.468Z,7.90
2019-05-18T10:12:04.691Z,8.30
2019-05-18T10:13:09.453Z,7.22
2019-05-18T10:14:13.635Z,7.83
2019-05-18T10:15:18.452Z,9.30
2019-05-18T10:16:22.660Z,7.60
2019-05-18T10:17:28.359Z,8.13
2019-05-18T10:18:32.538Z,7.40
2019-05-18T10:19:37.259Z,6.83
2019-05-18T10:20:41.448Z,6.47
2019-05-18T10:21:46.256Z,8.30
2019-05-18T10:22:59.244Z,7.25
2019-05-18T10:23:56.988Z,6.60
2019-05-18T10:25:01.158Z,7.58
2019-05-18T10:26:05.976Z,7.20
2019-05-18T10:27:10.214Z,7.03
2019-05-18T10:28:14.936Z,6.77
2019-05-18T10:29:19.208Z,7.70
2019-05-18T10:30:23.998Z,8.75
2019-05-18T10:31:28.285Z,7.80
2019-05-18T10:32:33.018Z,7.58
2019-05-18T10:33:37.194Z,6.95
2019-05-18T10:34:41.986Z,7.35
2019-05-18T10:35:46.151Z,6.87
2019-05-18T10:36:50.973Z,6.55
2019-05-18T10:37:55.235Z,6.50
2019-05-18T10:38:59.955Z,6.95
2019-05-18T10:40:09.050Z,5.85
2019-05-18T10:41:13.772Z,6.40
2019-05-18T10:42:18.080Z,5.80
2019-05-18T10:43:22.807Z,7.97
2019-05-18T10:44:26.979Z,7.97
2019-05-18T10:45:32.850Z,8.03
2019-05-18T10:46:37.015Z,7.03
2019-05-18T10:47:43.036Z,7.67
2019-05-18T10:48:47.392Z,7.72
2019-05-18T10:49:52.112Z,7.28
2019-05-18T10:50:56.327Z,6.60
2019-05-18T10:52:01.155Z,6.13
2019-05-18T10:53:05.400Z,5.08
2019-05-18T10:54:10.119Z,4.40
2019-05-18T10:55:14.280Z,4.80
2019-05-18T10:56:19.074Z,4.73
2019-05-18T10:57:24.233Z,4.20
2019-05-18T10:58:28.960Z,4.45
2019-05-18T10:59:33.133Z,3.98
2019-05-18T11:00:38.523Z,3.90
2019-05-18T11:01:44.013Z,3.60
2019-05-18T11:02:50.333Z,3.70
2019-05-18T11:03:54.496Z,3.12
2019-05-18T11:04:59.240Z,3.30
2019-05-18T11:06:03.379Z,3.70
2019-05-18T11:07:08.127Z,3.27
2019-05-18T11:08:12.336Z,2.80
2019-05-18T11:09:17.221Z,4.47
2019-05-18T11:10:21.364Z,3.57
2019-05-18T11:11:26.154Z,4.17
2019-05-18T11:12:30.342Z,3.67
2019-05-18T11:13:35.073Z,3.50
2019-05-18T11:14:39.244Z,3.08
2019-05-18T11:15:44.070Z,2.77
2019-05-18T11:16:48.291Z,2.87
2019-05-18T11:17:53.015Z,3.02
2019-05-18T11:18:57.185Z,2.70
2019-05-18T11:20:02.015Z,2.22
2019-05-18T11:21:06.233Z,3.27
2019-05-18T11:22:11.047Z,3.47
2019-05-18T11:23:15.325Z,3.40
2019-05-18T11:24:20.111Z,3.13
2019-05-18T11:25:24.346Z,3.20
2019-05-18T11:26:29.063Z,3.30
2019-05-18T11:27:33.228Z,3.50
2019-05-18T11:28:37.971Z,3.20
2019-05-18T11:29:42.135Z,2.98
2019-05-18T11:30:46.980Z,3.17
2019-05-18T11:31:52.120Z,2.70
2019-05-18T11:32:56.839Z,2.67
2019-05-18T11:34:01.012Z,3.00
2019-05-18T11:35:06.747Z,2.70
2019-05-18T11:36:11.012Z,3.30
2019-05-18T11:37:15.810Z,2.83
2019-05-18T11:38:20.090Z,3.10
2019-05-18T11:39:24.969Z,2.87
2019-05-18T11:40:29.195Z,2.80
2019-05-18T11:41:33.904Z,3.05
2019-05-18T11:42:38.079Z,3.00
2019-05-18T11:43:42.865Z,2.83
2019-05-18T11:44:47.059Z,2.90
2019-05-18T11:45:51.788Z,3.25
2019-05-18T11:46:56.041Z,3.17
2019-05-18T11:48:00.607Z,2.80
2019-05-18T11:49:04.778Z,3.33
2019-05-18T11:50:09.956Z,3.20
2019-05-18T11:51:14.120Z,3.00
2019-05-18T11:52:18.613Z,3.20
2019-05-18T11:53:23.783Z,3.10
2019-05-18T11:54:29.222Z,3.23
2019-05-18T11:55:33.391Z,2.62
2019-05-18T11:56:38.282Z,3.20
2019-05-18T11:57:42.741Z,2.75
2019-05-18T11:58:47.676Z,2.92
2019-05-18T11:59:51.843Z,2.35
2019-05-18T12:00:56.656Z,2.50
2019-05-18T12:02:00.827Z,2.85
2019-05-18T12:03:05.552Z,3.25
2019-05-18T12:04:09.787Z,3.40
2019-05-18T12:05:14.511Z,3.50
2019-05-18T12:06:18.731Z,3.23
2019-05-18T12:07:23.583Z,3.17
2019-05-18T12:08:27.790Z,3.98
2019-05-18T12:09:32.619Z,3.42
2019-05-18T12:10:36.855Z,3.20
2019-05-18T12:11:41.656Z,2.90
2019-05-18T12:12:46.985Z,2.55
2019-05-18T12:13:51.810Z,2.62
2019-05-18T12:14:55.997Z,2.90
2019-05-18T12:16:00.712Z,2.60
2019-05-18T12:17:04.905Z,2.75
2019-05-18T12:18:09.735Z,3.52
2019-05-18T12:19:14.465Z,3.57
2019-05-18T12:20:19.176Z,3.00
2019-05-18T12:21:23.343Z,3.20
2019-05-18T12:22:28.105Z,2.90
2019-05-18T12:23:32.270Z,3.02
2019-05-18T12:24:37.671Z,2.70
2019-05-18T12:25:41.854Z,2.42
2019-05-18T12:26:47.063Z,2.70
2019-05-18T12:27:51.261Z,2.70
2019-05-18T12:28:56.008Z,3.67
2019-05-18T12:30:00.168Z,2.95
2019-05-18T12:31:07.010Z,2.70
2019-05-18T12:32:11.101Z,2.60
2019-05-18T12:33:15.851Z,2.90
2019-05-18T12:34:20.012Z,3.20
2019-05-18T12:35:24.737Z,3.12
2019-05-18T12:36:28.903Z,2.83
2019-05-18T12:37:33.627Z,3.17
2019-05-18T12:38:37.864Z,2.83
2019-05-18T12:39:42.700Z,2.92
2019-05-18T12:40:46.869Z,3.00
2019-05-18T12:41:51.589Z,2.98
2019-05-18T12:42:55.759Z,2.77
2019-05-18T12:44:00.480Z,2.77
2019-05-18T12:45:05.831Z,3.17
2019-05-18T12:46:10.552Z,2.90
2019-05-18T12:47:14.841Z,3.10
2019-05-18T12:48:19.564Z,3.70
2019-05-18T12:49:24.786Z,2.90
2019-05-18T12:50:29.753Z,3.67
2019-05-18T12:51:33.918Z,3.45
2019-05-18T12:52:38.723Z,3.30
2019-05-18T12:53:42.955Z,3.58
2019-05-18T12:54:48.424Z,3.42
2019-05-18T12:55:52.610Z,2.95
2019-05-18T12:56:57.333Z,3.00
2019-05-18T12:58:01.631Z,3.00
2019-05-18T12:59:06.349Z,2.90
2019-05-18T13:00:12.211Z,3.20
2019-05-18T13:01:17.212Z,3.52
2019-05-18T13:02:21.384Z,3.40
2019-05-18T13:03:26.108Z,4.17
2019-05-18T13:04:30.277Z,3.92
2019-05-18T13:05:35.104Z,3.85
2019-05-18T13:06:39.356Z,3.60
2019-05-18T13:07:44.131Z,3.27
2019-05-18T13:08:48.364Z,3.37
2019-05-18T13:09:54.716Z,3.55
2019-05-18T13:10:58.952Z,4.80
2019-05-18T13:12:03.819Z,4.10
2019-05-18T13:13:08.647Z,3.90
2019-05-18T13:14:13.432Z,3.80
2019-05-18T13:15:18.642Z,3.50
2019-05-18T13:16:23.383Z,3.87
2019-05-18T13:17:27.687Z,3.70
2019-05-18T13:18:32.413Z,3.75
2019-05-18T13:19:36.662Z,3.92
2019-05-18T13:20:41.487Z,3.92
2019-05-18T13:21:45.667Z,3.75
2019-05-18T13:22:50.668Z,3.67
2019-05-18T13:23:54.923Z,3.60
2019-05-18T13:24:59.671Z,3.80
2019-05-18T13:26:04.642Z,2.72
2019-05-18T13:27:09.362Z,3.62
2019-05-18T13:28:13.644Z,4.25
2019-05-18T13:29:18.524Z,3.83
2019-05-18T13:30:22.710Z,3.47
2019-05-18T13:31:27.431Z,2.42
2019-05-18T13:32:32.693Z,2.72
2019-05-18T13:33:37.467Z,1.85
2019-05-18T13:34:41.629Z,1.70
2019-05-18T13:35:46.508Z,1.40
2019-05-18T13:36:50.667Z,1.30
2019-05-18T13:37:55.411Z,1.40
2019-05-18T13:38:59.603Z,1.10
2019-05-18T13:40:08.159Z,1.44
2019-05-18T13:41:12.328Z,1.10
2019-05-18T13:42:17.207Z,1.17
2019-05-18T13:43:21.395Z,1.20
2019-05-18T13:44:26.180Z,1.10
2019-05-18T13:45:30.352Z,1.40
2019-05-18T13:46:35.074Z,1.12
2019-05-18T13:47:39.243Z,1.30
2019-05-18T13:48:44.057Z,1.02
2019-05-18T13:49:48.237Z,0.90
2019-05-18T13:50:53.919Z,1.10
2019-05-18T13:51:58.159Z,1.00
2019-05-18T13:53:02.892Z,1.10
2019-05-18T13:54:07.953Z,1.00
2019-05-18T13:55:12.714Z,0.90
2019-05-18T13:56:16.843Z,1.00
2019-05-18T13:57:21.641Z,1.10
2019-05-18T13:58:25.805Z,0.90
2019-05-18T13:59:30.548Z,0.90
2019-05-18T14:00:34.711Z,0.90
2019-05-18T14:01:39.507Z,0.90
2019-05-18T14:02:43.703Z,0.90
2019-05-18T14:03:48.443Z,0.98